This is the latest recevied weather packets stored in our database for station/object W5COG. If no packets are shown the sender has not sent any weather packets the latest 1 day(s).
| Time | Temp. | Humidity | Pressure | Rain* | Wind** | Luminosity | Snow |
|---|---|---|---|---|---|---|---|
| 1778025928 | 10° C | 72% | 1009.7 hPa | 0 mm | 2.24 m/s, 55° | 32 W/m² | - |
| 1778025628 | 10.56° C | 71% | 1010 hPa | 0 mm | 2.68 m/s, 44° | 23 W/m² | - |
| 1778025328 | 10.56° C | 71% | 1009.9 hPa | 0 mm | 2.24 m/s, 34° | 27 W/m² | - |
| 1778025028 | 10.56° C | 71% | 1009.9 hPa | 0 mm | 1.79 m/s, 30° | 27 W/m² | - |
| 1778024728 | 10.56° C | 70% | 1010 hPa | 0 mm | 1.79 m/s, 38° | 23 W/m² | - |
| 1778024428 | 10.56° C | 70% | 1010 hPa | 0 mm | 2.68 m/s, 48° | 28 W/m² | - |
| 1778024128 | 10.56° C | 71% | 1009.9 hPa | 0 mm | 1.79 m/s, 23° | 30 W/m² | - |
| 1778023228 | 10.56° C | 70% | 1009.6 hPa | 0 mm | 2.68 m/s, 45° | 26 W/m² | - |
| 1778022928 | 10.56° C | 70% | 1009.4 hPa | 0 mm | 2.24 m/s, 40° | 33 W/m² | - |
| 1778022627 | 10.56° C | 70% | 1009.4 hPa | 0 mm | 2.24 m/s, 47° | 32 W/m² | - |
| 1778022327 | 10.56° C | 70% | 1009.5 hPa | 0 mm | 1.79 m/s, 29° | 26 W/m² | - |
| 1778022027 | 10.56° C | 69% | 1009.5 hPa | 0 mm | 1.79 m/s, 32° | 39 W/m² | - |
| 1778021727 | 10.56° C | 68% | 1009.4 hPa | 0 mm | 2.68 m/s, 38° | 44 W/m² | - |
| 1778021146 | 11.11° C | 68% | 1009.1 hPa | 0 mm | 2.68 m/s, 45° | 56 W/m² | - |
| 1778020828 | 11.11° C | 68% | 1009 hPa | 0 mm | 2.68 m/s, 46° | 65 W/m² | - |
| 1778020528 | 11.11° C | 67% | 1008.8 hPa | 0 mm | 2.24 m/s, 47° | 72 W/m² | - |
| 1778020228 | 11.11° C | 68% | 1008.7 hPa | 0 mm | 1.79 m/s, 41° | 86 W/m² | - |
| 1778019928 | 11.11° C | 67% | 1008.8 hPa | 0 mm | 2.24 m/s, 47° | 96 W/m² | - |
| 1778019628 | 11.11° C | 67% | 1008.7 hPa | 0 mm | 1.79 m/s, 32° | 98 W/m² | - |
| 1778019328 | 11.11° C | 66% | 1008.6 hPa | 0 mm | 2.68 m/s, 36° | 88 W/m² | - |
| 1778019028 | 11.11° C | 66% | 1008.3 hPa | 0 mm | 3.13 m/s, 48° | 132 W/m² | - |
| 1778018728 | 11.67° C | 66% | 1008.3 hPa | 0 mm | 2.68 m/s, 53° | 109 W/m² | - |
| 1778018427 | 11.67° C | 65% | 1008.1 hPa | 0 mm | 2.68 m/s, 50° | 120 W/m² | - |
| 1778018127 | 11.11° C | 66% | 1008.3 hPa | 0 mm | 2.24 m/s, 41° | 153 W/m² | - |
| 1778017828 | 11.11° C | 67% | 1008.7 hPa | 0 mm | 1.79 m/s, 34° | 96 W/m² | - |
* Rain latest hour (hover to see other rain measurements)
** Current wind speed in m/s (hover to see current wind gust speed)